createdAt,value
2019-03-03T00:00:11.617Z,3.17
2019-03-03T00:02:40.225Z,4.53
2019-03-03T00:05:09.263Z,4.47
2019-03-03T00:07:37.613Z,4.27
2019-03-03T00:10:08.919Z,3.13
2019-03-03T00:12:37.190Z,3.63
2019-03-03T00:15:08.536Z,4.00
2019-03-03T00:17:36.972Z,4.17
2019-03-03T00:20:08.621Z,3.73
2019-03-03T00:22:37.035Z,2.90
2019-03-03T00:25:07.470Z,4.07
2019-03-03T00:27:35.782Z,3.73
2019-03-03T00:30:05.987Z,5.57
2019-03-03T00:32:34.373Z,3.20
2019-03-03T00:35:02.652Z,4.00
2019-03-03T00:37:32.584Z,4.30
2019-03-03T00:40:05.303Z,3.73
2019-03-03T00:42:35.207Z,3.30
2019-03-03T00:45:08.975Z,4.07
2019-03-03T00:47:55.025Z,3.53
2019-03-03T00:50:27.600Z,4.90
2019-03-03T00:52:57.492Z,5.50
2019-03-03T00:55:27.498Z,6.20
2019-03-03T00:58:06.388Z,6.60
2019-03-03T01:00:36.280Z,7.07
2019-03-03T01:03:11.705Z,6.53
2019-03-03T01:05:57.570Z,6.50
2019-03-03T01:08:30.231Z,5.47
2019-03-03T01:11:06.061Z,4.70
2019-03-03T01:13:41.951Z,4.27
2019-03-03T01:16:17.749Z,4.83
2019-03-03T01:19:05.898Z,5.17
2019-03-03T01:21:35.837Z,5.00
2019-03-03T01:24:05.753Z,3.37
2019-03-03T01:26:34.074Z,2.93
2019-03-03T01:29:02.350Z,4.23
2019-03-03T01:31:30.686Z,3.30
2019-03-03T01:33:58.928Z,3.47
2019-03-03T01:36:27.203Z,3.67
2019-03-03T01:38:55.544Z,3.47
2019-03-03T01:41:23.836Z,3.40
2019-03-03T01:43:52.238Z,3.30
2019-03-03T01:46:20.528Z,4.40
2019-03-03T01:48:48.772Z,2.73
2019-03-03T01:51:17.193Z,3.20
2019-03-03T01:53:45.467Z,2.93
2019-03-03T01:56:13.713Z,4.47
2019-03-03T01:58:41.985Z,3.67
2019-03-03T02:01:10.269Z,2.87
2019-03-03T02:03:38.538Z,3.20
2019-03-03T02:06:07.654Z,2.57
2019-03-03T02:08:35.928Z,3.17
2019-03-03T02:11:04.360Z,3.60
2019-03-03T02:13:32.621Z,3.97
2019-03-03T02:16:00.873Z,2.60
2019-03-03T02:18:29.151Z,3.53
2019-03-03T02:20:57.446Z,3.20
2019-03-03T02:23:25.750Z,3.00
2019-03-03T02:25:54.010Z,2.70
2019-03-03T02:28:22.308Z,3.00
2019-03-03T02:30:50.561Z,3.53
2019-03-03T02:33:18.830Z,3.10
2019-03-03T02:35:47.129Z,3.43
2019-03-03T02:38:15.653Z,3.40
2019-03-03T02:40:43.919Z,4.30
2019-03-03T02:43:12.202Z,3.77
2019-03-03T02:45:40.534Z,3.63
2019-03-03T02:48:08.779Z,3.90
2019-03-03T02:50:37.155Z,3.10
2019-03-03T02:53:05.438Z,3.77
2019-03-03T02:55:34.041Z,4.27
2019-03-03T02:58:02.289Z,3.70
2019-03-03T03:00:30.669Z,3.80
2019-03-03T03:03:00.710Z,3.47
2019-03-03T03:05:30.609Z,3.53
2019-03-03T03:08:06.054Z,4.70
2019-03-03T03:10:35.969Z,3.80
2019-03-03T03:13:05.914Z,4.20
2019-03-03T03:15:52.281Z,4.43
2019-03-03T03:18:37.705Z,5.17
2019-03-03T03:21:13.646Z,5.67
2019-03-03T03:24:03.003Z,5.37
2019-03-03T03:26:32.898Z,6.10
2019-03-03T03:29:08.640Z,5.10
2019-03-03T03:31:41.337Z,6.10
2019-03-03T03:34:13.920Z,5.40
2019-03-03T03:36:43.871Z,5.50
2019-03-03T03:39:25.836Z,6.70
2019-03-03T03:42:01.522Z,6.53
2019-03-03T03:44:36.899Z,6.80
2019-03-03T03:47:09.294Z,5.13
2019-03-03T03:49:42.487Z,8.53
2019-03-03T03:52:28.615Z,5.90
2019-03-03T03:55:14.296Z,6.20
2019-03-03T03:57:47.130Z,6.20
2019-03-03T04:00:22.943Z,6.80
2019-03-03T04:03:02.262Z,5.87
2019-03-03T04:05:50.498Z,5.80
2019-03-03T04:08:26.177Z,6.10
2019-03-03T04:11:12.526Z,6.50
2019-03-03T04:13:45.421Z,6.53
2019-03-03T04:16:15.383Z,6.50
2019-03-03T04:18:51.109Z,6.27
2019-03-03T04:21:23.849Z,7.43
2019-03-03T04:23:53.776Z,6.07
2019-03-03T04:26:32.588Z,5.90
2019-03-03T04:29:02.515Z,6.40
2019-03-03T04:31:41.348Z,6.50
2019-03-03T04:34:14.000Z,6.53
2019-03-03T04:36:49.938Z,5.80
2019-03-03T04:39:29.185Z,7.50
2019-03-03T04:42:07.892Z,8.20
2019-03-03T04:44:37.949Z,7.23
2019-03-03T04:47:07.860Z,6.83
2019-03-03T04:49:37.758Z,8.00
2019-03-03T04:52:24.185Z,7.37
2019-03-03T04:54:54.113Z,8.30
2019-03-03T04:57:24.068Z,7.50
2019-03-03T04:59:53.957Z,8.27
2019-03-03T05:02:29.907Z,9.23
2019-03-03T05:04:59.789Z,8.60
2019-03-03T05:07:32.415Z,7.60
2019-03-03T05:10:08.576Z,8.90
2019-03-03T05:12:38.532Z,8.80
2019-03-03T05:15:20.594Z,8.63
2019-03-03T05:17:51.340Z,6.90
2019-03-03T05:20:19.620Z,8.03
2019-03-03T05:22:47.871Z,7.93
2019-03-03T05:25:16.166Z,8.23
2019-03-03T05:27:44.426Z,8.40
2019-03-03T05:30:13.980Z,6.73
2019-03-03T05:32:42.257Z,9.40
2019-03-03T05:35:10.797Z,8.30
2019-03-03T05:37:39.524Z,8.47
2019-03-03T05:40:08.288Z,7.50
2019-03-03T05:42:36.597Z,8.73
2019-03-03T05:45:05.918Z,7.47
2019-03-03T05:47:34.191Z,8.43
2019-03-03T05:50:02.438Z,8.40
2019-03-03T05:52:30.714Z,9.23
2019-03-03T05:54:59.009Z,9.00
2019-03-03T05:57:27.298Z,7.53
2019-03-03T05:59:55.582Z,9.37
2019-03-03T06:02:23.969Z,8.03
2019-03-03T06:04:52.215Z,9.20
2019-03-03T06:07:20.465Z,9.67
2019-03-03T06:09:48.780Z,9.77
2019-03-03T06:12:17.277Z,8.97
2019-03-03T06:14:45.563Z,8.77
2019-03-03T06:17:13.806Z,9.20
2019-03-03T06:19:42.110Z,9.30
2019-03-03T06:22:10.361Z,9.03
2019-03-03T06:24:38.674Z,10.10
2019-03-03T06:27:06.927Z,9.30
2019-03-03T06:29:35.178Z,10.40
2019-03-03T06:32:03.511Z,11.40
2019-03-03T06:34:31.784Z,9.77
2019-03-03T06:37:00.105Z,10.57
2019-03-03T06:39:28.371Z,10.30
2019-03-03T06:41:57.804Z,10.60
2019-03-03T06:44:26.952Z,10.23
2019-03-03T06:46:55.409Z,10.60
2019-03-03T06:49:23.713Z,10.20
2019-03-03T06:51:52.000Z,10.17
2019-03-03T06:54:20.264Z,9.53
2019-03-03T06:56:48.922Z,9.87
2019-03-03T06:59:17.251Z,9.50
2019-03-03T07:01:45.784Z,9.50
2019-03-03T07:04:14.177Z,9.60
2019-03-03T07:06:42.480Z,10.53
2019-03-03T07:09:10.727Z,10.00
2019-03-03T07:11:39.039Z,10.30
2019-03-03T07:14:07.323Z,11.03
2019-03-03T07:16:35.605Z,11.73
2019-03-03T07:19:04.025Z,11.27
2019-03-03T07:21:32.301Z,11.30
2019-03-03T07:24:00.567Z,11.23
2019-03-03T07:26:28.997Z,10.73
2019-03-03T07:28:57.307Z,12.10
2019-03-03T07:31:25.585Z,11.90
2019-03-03T07:33:54.583Z,10.67
2019-03-03T07:36:22.869Z,11.17
2019-03-03T07:38:51.129Z,10.20
2019-03-03T07:41:19.385Z,8.57
2019-03-03T07:43:47.701Z,11.23
2019-03-03T07:46:15.988Z,12.47
2019-03-03T07:48:44.420Z,11.80
2019-03-03T07:51:12.681Z,10.70
2019-03-03T07:53:40.944Z,11.73
2019-03-03T07:56:09.337Z,12.20
2019-03-03T07:58:37.894Z,11.83
2019-03-03T08:01:06.159Z,12.03
2019-03-03T08:03:34.457Z,12.23
2019-03-03T08:06:02.724Z,11.03
2019-03-03T08:08:31.060Z,11.53
2019-03-03T08:10:59.321Z,12.13
2019-03-03T08:13:27.637Z,11.47
2019-03-03T08:15:55.904Z,12.50
2019-03-03T08:18:24.164Z,11.67
2019-03-03T08:20:52.639Z,10.20
2019-03-03T08:23:20.895Z,11.07
2019-03-03T08:25:49.203Z,11.33
2019-03-03T08:28:17.625Z,11.93
2019-03-03T08:30:45.892Z,11.73
2019-03-03T08:33:14.277Z,12.43
2019-03-03T08:35:42.578Z,13.67
2019-03-03T08:38:10.960Z,18.33
2019-03-03T08:40:39.305Z,17.77
2019-03-03T08:43:09.355Z,13.40
2019-03-03T08:45:54.391Z,12.40
2019-03-03T08:48:24.363Z,13.33
2019-03-03T08:50:54.293Z,12.87
2019-03-03T08:53:27.037Z,13.00
2019-03-03T08:56:08.678Z,12.23
2019-03-03T08:58:44.301Z,12.13
2019-03-03T09:01:17.447Z,12.33
2019-03-03T09:03:59.544Z,12.40
2019-03-03T09:06:41.488Z,12.50
2019-03-03T09:09:11.459Z,12.10
2019-03-03T09:11:41.390Z,10.93
2019-03-03T09:14:14.049Z,12.50
2019-03-03T09:16:53.045Z,12.77
2019-03-03T09:19:25.636Z,11.00
2019-03-03T09:21:55.606Z,11.67
2019-03-03T09:24:41.488Z,11.67
2019-03-03T09:27:16.977Z,8.93
2019-03-03T09:29:52.354Z,9.13
2019-03-03T09:32:27.750Z,8.37
2019-03-03T09:35:00.166Z,9.17
2019-03-03T09:37:46.345Z,7.83
2019-03-03T09:40:16.261Z,7.40
2019-03-03T09:42:51.961Z,8.30
2019-03-03T09:45:21.861Z,7.13
2019-03-03T09:48:10.273Z,6.17
2019-03-03T09:50:45.875Z,7.00
2019-03-03T09:53:24.963Z,6.57
2019-03-03T09:55:54.943Z,5.40
2019-03-03T09:58:24.834Z,5.37
2019-03-03T10:00:57.599Z,5.10
2019-03-03T10:03:36.487Z,5.67
2019-03-03T10:06:09.319Z,5.47
2019-03-03T10:08:48.241Z,5.30
2019-03-03T10:11:21.268Z,4.57
2019-03-03T10:13:57.228Z,4.97
2019-03-03T10:16:30.140Z,5.00
2019-03-03T10:19:06.944Z,5.27
2019-03-03T10:21:40.502Z,5.77
2019-03-03T10:24:12.964Z,5.60
2019-03-03T10:26:48.673Z,6.00
2019-03-03T10:29:22.025Z,5.33
2019-03-03T10:32:08.504Z,5.27
2019-03-03T10:34:47.608Z,5.23
2019-03-03T10:37:19.968Z,6.10
2019-03-03T10:39:49.991Z,6.00
2019-03-03T10:42:19.910Z,5.73
2019-03-03T10:44:49.867Z,5.93
2019-03-03T10:47:19.769Z,5.77
2019-03-03T10:50:05.789Z,5.67
2019-03-03T10:52:51.807Z,6.00
2019-03-03T10:55:24.581Z,6.47
2019-03-03T10:58:03.507Z,5.80
2019-03-03T11:00:36.239Z,6.47
2019-03-03T11:03:06.154Z,5.53
2019-03-03T11:05:41.877Z,6.30
2019-03-03T11:08:14.574Z,5.50
2019-03-03T11:10:44.482Z,5.50
2019-03-03T11:13:14.433Z,6.03
2019-03-03T11:15:50.220Z,5.00
2019-03-03T11:18:35.432Z,5.50
2019-03-03T11:21:21.655Z,5.07
2019-03-03T11:24:00.716Z,5.37
2019-03-03T11:26:39.325Z,5.40
2019-03-03T11:29:25.446Z,4.70
2019-03-03T11:31:58.117Z,5.27
2019-03-03T11:34:30.564Z,5.50
2019-03-03T11:37:00.530Z,5.27
2019-03-03T11:39:35.952Z,5.00
2019-03-03T11:42:22.623Z,4.80
2019-03-03T11:45:07.800Z,4.43
2019-03-03T11:47:46.850Z,4.83
2019-03-03T11:50:22.649Z,4.73
2019-03-03T11:52:52.547Z,4.57
2019-03-03T11:55:40.639Z,5.37
2019-03-03T11:58:16.066Z,4.90
2019-03-03T12:00:54.938Z,5.63
2019-03-03T12:03:24.856Z,5.77
2019-03-03T12:05:57.612Z,5.17
2019-03-03T12:08:45.946Z,6.47
2019-03-03T12:11:25.046Z,6.90
2019-03-03T12:14:04.359Z,10.03
2019-03-03T12:16:34.281Z,9.23
2019-03-03T12:19:04.220Z,6.80
2019-03-03T12:21:37.114Z,7.20
2019-03-03T12:24:15.897Z,6.30
2019-03-03T12:26:45.840Z,5.67
2019-03-03T12:29:32.126Z,6.33
2019-03-03T12:32:02.698Z,5.73
2019-03-03T12:34:42.066Z,7.93
2019-03-03T12:37:11.943Z,7.20
2019-03-03T12:39:54.063Z,6.03
2019-03-03T12:42:26.919Z,5.80
2019-03-03T12:44:56.798Z,5.43
2019-03-03T12:47:35.505Z,6.00
2019-03-03T12:50:10.605Z,5.90
2019-03-03T12:52:55.375Z,5.00
2019-03-03T12:55:36.827Z,5.27
2019-03-03T12:58:06.782Z,5.67
2019-03-03T13:00:54.906Z,5.37
2019-03-03T13:03:27.253Z,5.80
2019-03-03T13:06:03.197Z,5.47
2019-03-03T13:08:33.108Z,6.20
2019-03-03T13:11:03.001Z,5.37
2019-03-03T13:13:33.055Z,6.03
2019-03-03T13:16:15.687Z,5.80
2019-03-03T13:18:48.465Z,5.50
2019-03-03T13:21:27.370Z,6.60
2019-03-03T13:23:57.396Z,6.13
2019-03-03T13:26:43.206Z,6.67
2019-03-03T13:29:25.231Z,5.70
2019-03-03T13:31:55.120Z,6.23
2019-03-03T13:34:41.416Z,5.53
2019-03-03T13:37:14.696Z,6.30
2019-03-03T13:39:50.083Z,5.90
2019-03-03T13:42:22.399Z,5.50
2019-03-03T13:44:50.670Z,5.90
2019-03-03T13:47:22.030Z,5.60
2019-03-03T13:49:50.487Z,5.33
2019-03-03T13:52:19.014Z,5.33
2019-03-03T13:54:47.325Z,5.40
2019-03-03T13:57:15.596Z,6.50
2019-03-03T13:59:43.850Z,6.20
2019-03-03T14:02:12.227Z,6.30
2019-03-03T14:04:40.509Z,5.63
2019-03-03T14:07:08.876Z,5.10
2019-03-03T14:09:37.209Z,7.00
2019-03-03T14:12:05.482Z,8.10
2019-03-03T14:14:33.734Z,7.47
2019-03-03T14:17:02.075Z,7.97
2019-03-03T14:19:30.359Z,9.47
2019-03-03T14:21:58.642Z,9.27
2019-03-03T14:24:26.936Z,8.73
2019-03-03T14:26:55.208Z,7.63
2019-03-03T14:29:23.503Z,8.73
2019-03-03T14:31:51.814Z,7.70
2019-03-03T14:34:20.064Z,7.00
2019-03-03T14:36:48.357Z,6.50
2019-03-03T14:39:17.063Z,6.83
2019-03-03T14:41:45.363Z,6.10
2019-03-03T14:44:13.646Z,5.47
2019-03-03T14:46:42.089Z,6.27
2019-03-03T14:49:10.398Z,6.20
2019-03-03T14:51:38.652Z,7.60
2019-03-03T14:54:06.934Z,6.00
2019-03-03T14:56:35.351Z,5.80
2019-03-03T14:59:03.607Z,4.80
2019-03-03T15:01:31.949Z,6.57
2019-03-03T15:04:00.217Z,6.90
2019-03-03T15:06:28.485Z,5.73
2019-03-03T15:08:56.755Z,5.50
2019-03-03T15:11:25.216Z,5.20
2019-03-03T15:13:53.466Z,4.67
2019-03-03T15:16:21.720Z,4.30
2019-03-03T15:18:50.148Z,4.43
2019-03-03T15:21:25.039Z,4.40
2019-03-03T15:23:48.385Z,4.70
2019-03-03T15:26:16.713Z,6.50
2019-03-03T15:28:45.021Z,10.30
2019-03-03T15:31:13.293Z,6.27
2019-03-03T15:33:41.600Z,8.20
2019-03-03T15:36:10.099Z,6.90
2019-03-03T15:38:38.393Z,8.20
2019-03-03T15:41:06.651Z,7.20
2019-03-03T15:43:34.958Z,8.10
2019-03-03T15:46:03.338Z,7.13
2019-03-03T15:48:31.594Z,7.03
2019-03-03T15:50:59.851Z,9.10
2019-03-03T15:53:28.795Z,6.73
2019-03-03T15:55:57.077Z,8.07
2019-03-03T15:58:25.346Z,9.90
2019-03-03T16:00:53.979Z,9.17
2019-03-03T16:03:22.253Z,8.20
2019-03-03T16:05:50.533Z,7.30
2019-03-03T16:08:18.948Z,7.40
2019-03-03T16:10:47.188Z,6.77
2019-03-03T16:13:15.496Z,8.67
2019-03-03T16:15:43.808Z,7.93
2019-03-03T16:18:12.136Z,8.50
2019-03-03T16:20:40.411Z,7.70
2019-03-03T16:23:08.704Z,7.23
2019-03-03T16:25:37.026Z,10.07
2019-03-03T16:28:05.306Z,8.30
2019-03-03T16:30:33.604Z,9.70
2019-03-03T16:33:02.436Z,11.43
2019-03-03T16:35:30.720Z,12.10
2019-03-03T16:37:59.128Z,12.60
2019-03-03T16:40:27.419Z,12.83
2019-03-03T16:42:55.849Z,10.73
2019-03-03T16:45:24.204Z,9.93
2019-03-03T16:47:52.468Z,8.80
2019-03-03T16:50:21.636Z,11.40
2019-03-03T16:52:49.980Z,10.80
2019-03-03T16:55:19.327Z,9.60
2019-03-03T16:57:47.593Z,9.30
2019-03-03T17:00:28.686Z,10.57
2019-03-03T17:02:56.964Z,10.33
2019-03-03T17:05:28.995Z,11.20
2019-03-03T17:07:57.298Z,11.13
2019-03-03T17:10:25.635Z,10.97
2019-03-03T17:12:54.167Z,10.70
2019-03-03T17:15:27.140Z,9.67
2019-03-03T17:17:55.583Z,9.03
2019-03-03T17:20:23.843Z,8.97
2019-03-03T17:22:52.101Z,8.80
2019-03-03T17:25:25.031Z,9.63
2019-03-03T17:27:53.275Z,8.77
2019-03-03T17:30:23.209Z,10.97
2019-03-03T17:32:51.527Z,8.60
2019-03-03T17:35:19.804Z,11.03
2019-03-03T17:37:48.216Z,10.30
2019-03-03T17:40:23.796Z,11.30
2019-03-03T17:42:52.092Z,10.07
2019-03-03T17:45:21.539Z,11.13
2019-03-03T17:47:49.874Z,10.17
2019-03-03T17:50:21.106Z,8.97
2019-03-03T17:52:49.486Z,10.80
2019-03-03T17:55:17.742Z,8.37
2019-03-03T17:57:46.040Z,10.03
2019-03-03T18:00:19.337Z,8.60
2019-03-03T18:02:47.649Z,10.60
2019-03-03T18:05:17.264Z,10.37
2019-03-03T18:07:45.648Z,11.17
2019-03-03T18:10:13.929Z,11.23
2019-03-03T18:12:42.254Z,8.53
2019-03-03T18:15:12.413Z,8.70
2019-03-03T18:17:40.673Z,11.20
2019-03-03T18:20:11.739Z,9.20
2019-03-03T18:22:40.038Z,9.23
2019-03-03T18:25:10.485Z,7.53
2019-03-03T18:27:38.819Z,7.97
2019-03-03T18:30:22.224Z,8.97
2019-03-03T18:32:50.550Z,8.60
2019-03-03T18:35:18.808Z,7.90
2019-03-03T18:37:47.158Z,8.40
2019-03-03T18:40:18.216Z,8.00
2019-03-03T18:42:46.541Z,7.73
2019-03-03T18:45:16.857Z,7.90
2019-03-03T18:47:45.162Z,9.57
2019-03-03T18:50:28.242Z,8.50
2019-03-03T18:52:56.505Z,7.93
2019-03-03T18:55:24.904Z,6.87
2019-03-03T18:57:53.186Z,6.57
2019-03-03T19:00:28.893Z,8.00
2019-03-03T19:02:58.349Z,7.10
2019-03-03T19:05:26.847Z,5.37
2019-03-03T19:07:55.143Z,7.20
2019-03-03T19:10:26.064Z,6.50
2019-03-03T19:12:54.456Z,6.53
2019-03-03T19:15:22.791Z,6.00
2019-03-03T19:17:51.088Z,7.10
2019-03-03T19:20:21.470Z,7.23
2019-03-03T19:22:49.853Z,6.07
2019-03-03T19:25:18.331Z,6.43
2019-03-03T19:27:46.703Z,6.00
2019-03-03T19:30:17.129Z,5.13
2019-03-03T19:32:45.837Z,5.80
2019-03-03T19:35:14.150Z,6.00
2019-03-03T19:37:42.458Z,5.10
2019-03-03T19:40:12.379Z,5.27
2019-03-03T19:42:40.854Z,6.90
2019-03-03T19:45:27.509Z,4.60
2019-03-03T19:47:56.076Z,5.30
2019-03-03T19:50:24.639Z,4.43
2019-03-03T19:52:53.664Z,3.80
2019-03-03T19:55:23.318Z,5.00
2019-03-03T19:57:52.035Z,5.93
2019-03-03T20:00:35.063Z,4.30
2019-03-03T20:02:57.938Z,4.40
2019-03-03T20:05:26.237Z,4.50
2019-03-03T20:07:54.733Z,4.63
2019-03-03T20:10:23.422Z,4.50
2019-03-03T20:12:51.681Z,5.27
2019-03-03T20:15:20.183Z,4.97
2019-03-03T20:17:48.631Z,5.33
2019-03-03T20:20:20.895Z,4.50
2019-03-03T20:22:49.421Z,4.30
2019-03-03T20:25:17.827Z,5.57
2019-03-03T20:27:46.334Z,4.80
2019-03-03T20:30:19.921Z,4.43
2019-03-03T20:32:48.326Z,4.10
2019-03-03T20:35:16.802Z,4.20
2019-03-03T20:37:46.228Z,3.77
2019-03-03T20:40:19.866Z,4.80
2019-03-03T20:42:48.125Z,4.50
2019-03-03T20:45:19.723Z,4.17
2019-03-03T20:47:48.047Z,5.30
2019-03-03T20:50:20.378Z,4.80
2019-03-03T20:52:49.015Z,4.90
2019-03-03T20:55:19.938Z,3.83
2019-03-03T20:57:48.208Z,4.33
2019-03-03T21:00:26.645Z,4.50
2019-03-03T21:02:55.134Z,4.77
2019-03-03T21:05:23.417Z,4.63
2019-03-03T21:07:52.227Z,4.00
2019-03-03T21:10:23.912Z,5.07
2019-03-03T21:12:54.434Z,5.00
2019-03-03T21:15:24.102Z,5.10
2019-03-03T21:17:54.307Z,4.70
2019-03-03T21:20:23.101Z,3.93
2019-03-03T21:22:51.471Z,5.13
2019-03-03T21:25:20.115Z,5.10
2019-03-03T21:27:48.450Z,5.10
2019-03-03T21:30:24.333Z,3.83
2019-03-03T21:32:52.598Z,4.60
2019-03-03T21:35:20.945Z,4.43
2019-03-03T21:37:49.248Z,5.13
2019-03-03T21:40:20.749Z,4.10
2019-03-03T21:42:49.135Z,5.50
2019-03-03T21:45:21.320Z,4.50
2019-03-03T21:47:49.601Z,4.80
2019-03-03T21:50:22.703Z,4.93
2019-03-03T21:52:50.992Z,5.10
2019-03-03T21:55:19.268Z,5.77
2019-03-03T21:57:47.545Z,4.93
2019-03-03T22:00:33.695Z,5.17
2019-03-03T22:03:02.046Z,4.70
2019-03-03T22:05:30.440Z,4.87
2019-03-03T22:07:58.731Z,5.10
2019-03-03T22:10:30.280Z,4.20
2019-03-03T22:13:01.180Z,4.63
2019-03-03T22:15:29.448Z,4.87
2019-03-03T22:17:57.852Z,4.97
2019-03-03T22:20:26.137Z,5.07
2019-03-03T22:22:54.420Z,4.37
2019-03-03T22:25:22.707Z,4.63
2019-03-03T22:27:51.021Z,5.17
2019-03-03T22:30:19.941Z,4.60
2019-03-03T22:32:48.243Z,4.00
2019-03-03T22:35:16.880Z,4.40
2019-03-03T22:37:45.164Z,4.67
2019-03-03T22:40:15.684Z,4.83
2019-03-03T22:42:43.991Z,4.50
2019-03-03T22:45:14.293Z,4.07
2019-03-03T22:47:43.361Z,4.13
2019-03-03T22:50:16.660Z,3.57
2019-03-03T22:52:44.911Z,4.17
2019-03-03T22:55:15.702Z,4.00
2019-03-03T22:57:43.993Z,4.37
2019-03-03T23:00:45.941Z,4.20
2019-03-03T23:03:23.392Z,4.13
2019-03-03T23:06:15.922Z,4.60
2019-03-03T23:08:59.037Z,4.23
2019-03-03T23:11:33.337Z,5.27
2019-03-03T23:14:24.256Z,4.20
2019-03-03T23:17:04.831Z,5.03
2019-03-03T23:19:55.862Z,4.20
2019-03-03T23:22:30.449Z,3.70
2019-03-03T23:25:13.769Z,3.93
2019-03-03T23:27:42.169Z,4.60
2019-03-03T23:30:10.471Z,4.10
2019-03-03T23:32:38.730Z,4.60
2019-03-03T23:35:07.302Z,5.33
2019-03-03T23:37:35.575Z,4.23
2019-03-03T23:40:04.354Z,4.77
2019-03-03T23:42:32.610Z,4.53
2019-03-03T23:45:00.940Z,4.00
2019-03-03T23:47:29.209Z,4.37
2019-03-03T23:49:57.875Z,4.90
2019-03-03T23:52:26.159Z,4.50
2019-03-03T23:54:54.428Z,4.00
2019-03-03T23:57:23.528Z,4.10
2019-03-03T23:59:52.097Z,3.50
